1K1

Lloyd Stearman Field Airport

Benton, Kansas, USA
METAR K1K1 220255Z AUTO 05003KT 10SM CLR 14/11 A3027 RMK AO2 T01380111
Observed Flight Rules
Sep-22 @ 02:55 UTC (31 minutes ago) Visual Flight Rules
Wind Visibility Clouds
50° at 3 knots 10 miles
Temperatures Readings
Current 14°C / 57°F
Dewpoint 11°C / 52°F
Humidity 82%
Altimeter 30.27" Hg
Pressure 1025 hPa
Elevation 416
METAR K1K1 220255Z AUTO 05003KT 10SM CLR 14/11 A3027 RMK AO2 T01380111
Observed Flight Rules
Sep-22 @ 02:55 UTC
(31 minutes ago)
VFR
Wind Visibility
50° at 3 knots 10 miles
Clouds
Temperature Dewpoint
14°C / 57°F 11°C / 52°F
Humidity Altimeter Pressure
82% 30.27" Hg 1025 hPa